Time;durP1;ratioP1;P1;durP2;ratioP2;P2;SDS_P1;SDS_P2;PMS_P1;PMS_P2;Temp;Humidity;BMP_temperature;BMP_pressure;BME280_temperature;BME280_humidity;BME280_pressure;Samples;Min_cycle;Max_cycle;Signal;HPM_P1;HPM_P2
2021/04/04 00:00:51;;;;;;;31.52;6.95;;;;;;;;;;5050389;28;20041;-64
2021/04/04 00:03:17;;;;;;;29.52;7.13;;;;;;;;;;5050820;28;20025;-63
2021/04/04 00:05:42;;;;;;;33.25;6.20;;;;;;;;;;5050952;28;20099;-63
2021/04/04 00:08:07;;;;;;;36.55;7.20;;;;;;;;;;5050655;28;20473;-64
2021/04/04 00:10:33;;;;;;;40.42;8.52;;;;;;;;;;5050935;28;20457;-64
2021/04/04 00:12:58;;;;;;;41.67;7.57;;;;;;;;;;5049407;28;20020;-64
2021/04/04 00:15:23;;;;;;;47.00;8.30;;;;;;;;;;5036050;28;20025;-65
2021/04/04 00:17:48;;;;;;;40.30;8.20;;;;;;;;;;5050348;28;20031;-64
2021/04/04 00:20:17;;;;;;;47.10;7.30;;;;;;;;;;5041383;28;20076;-64
2021/04/04 00:22:45;;;;;;;33.42;7.35;;;;;;;;;;5049081;28;20039;-63
2021/04/04 00:25:12;;;;;;;46.15;7.68;;;;;;;;;;5050286;28;20108;-64
2021/04/04 00:27:38;;;;;;;39.72;7.32;;;;;;;;;;5050100;28;20024;-63
2021/04/04 00:30:07;;;;;;;37.35;8.18;;;;;;;;;;5050521;28;20029;-63
2021/04/04 00:32:32;;;;;;;27.85;7.38;;;;;;;;;;5051063;28;20032;-64
2021/04/04 00:34:57;;;;;;;29.42;7.45;;;;;;;;;;5050210;28;20024;-64
2021/04/04 00:37:23;;;;;;;33.28;6.78;;;;;;;;;;5049204;28;20032;-64
2021/04/04 00:39:48;;;;;;;45.65;7.63;;;;;;;;;;5045804;28;20043;-63
2021/04/04 00:42:13;;;;;;;39.20;7.88;;;;;;;;;;5045847;28;20473;-63
2021/04/04 00:44:39;;;;;;;38.92;6.82;;;;;;;;;;5044671;28;20021;-63
2021/04/04 00:47:04;;;;;;;30.85;6.30;;;;;;;;;;5045504;28;20074;-63
2021/04/04 00:49:29;;;;;;;42.08;6.88;;;;;;;;;;5047654;28;20393;-63
2021/04/04 00:51:54;;;;;;;32.15;6.85;;;;;;;;;;5050398;28;20111;-65
2021/04/04 00:54:19;;;;;;;33.97;7.53;;;;;;;;;;5048759;28;20028;-65
2021/04/04 00:56:45;;;;;;;31.42;6.28;;;;;;;;;;5050448;28;20025;-65
2021/04/04 00:59:10;;;;;;;36.05;7.05;;;;;;;;;;5049036;28;20061;-63
2021/04/04 01:01:35;;;;;;;26.90;6.50;;;;;;;;;;5031870;28;20023;-65
2021/04/04 01:04:01;;;;;;;26.13;6.03;;;;;;;;;;5049971;28;20024;-63
2021/04/04 01:06:26;;;;;;;29.65;6.22;;;;;;;;;;5050311;28;20032;-66
2021/04/04 01:08:52;;;;;;;22.08;5.97;;;;;;;;;;5049137;28;20025;-63
2021/04/04 01:11:21;;;;;;;32.10;6.53;;;;;;;;;;5049389;28;20021;-63
2021/04/04 01:13:59;;;;;;;43.70;7.40;;;;;;;;;;5052455;28;20038;-63
2021/04/04 01:16:27;;;;;;;30.63;6.55;;;;;;;;;;5044728;28;20568;-64
2021/04/04 01:18:56;;;;;;;33.75;7.50;;;;;;;;;;5049968;28;20355;-64
2021/04/04 01:21:25;;;;;;;34.10;7.82;;;;;;;;;;5050617;28;20462;-63
2021/04/04 01:24:09;;;;;;;34.80;6.47;;;;;;;;;;5049218;28;20470;-63
2021/04/04 01:26:34;;;;;;;27.70;8.10;;;;;;;;;;5048028;28;20017;-64
2021/04/04 01:29:00;;;;;;;29.88;6.38;;;;;;;;;;5049451;28;20074;-64
2021/04/04 01:31:26;;;;;;;36.40;6.90;;;;;;;;;;5048783;28;21574;-65
2021/04/04 01:33:53;;;;;;;24.98;7.07;;;;;;;;;;5049907;28;20052;-64
2021/04/04 01:36:19;;;;;;;29.60;10.15;;;;;;;;;;5050017;28;20033;-63
2021/04/04 01:38:45;;;;;;;30.80;6.47;;;;;;;;;;5049283;28;20032;-64
2021/04/04 01:41:23;;;;;;;37.78;8.20;;;;;;;;;;5049449;28;20516;-64
2021/04/04 01:43:49;;;;;;;37.95;8.95;;;;;;;;;;5049678;28;20484;-64
2021/04/04 01:46:15;;;;;;;31.08;8.90;;;;;;;;;;5049764;28;20753;-63
2021/04/04 01:48:41;;;;;;;35.25;7.50;;;;;;;;;;5045253;28;20025;-63
2021/04/04 01:51:09;;;;;;;37.40;7.28;;;;;;;;;;5049493;28;20043;-64
2021/04/04 01:53:34;;;;;;;42.40;7.10;;;;;;;;;;5049567;28;20021;-63
2021/04/04 01:55:59;;;;;;;31.90;6.25;;;;;;;;;;5049625;28;20032;-64
2021/04/04 01:58:25;;;;;;;30.25;7.50;;;;;;;;;;5048275;28;20039;-64
2021/04/04 02:00:50;;;;;;;35.38;7.38;;;;;;;;;;5048761;28;20473;-63
2021/04/04 02:03:16;;;;;;;34.00;7.75;;;;;;;;;;5050117;28;20021;-64
2021/04/04 02:05:41;;;;;;;43.03;6.47;;;;;;;;;;5049976;28;20139;-63
2021/04/04 02:08:08;;;;;;;33.42;6.90;;;;;;;;;;5049267;28;20497;-64
2021/04/04 02:10:34;;;;;;;37.90;8.95;;;;;;;;;;5049469;28;20017;-63
2021/04/04 02:13:00;;;;;;;38.08;6.75;;;;;;;;;;5049513;28;20025;-63
2021/04/04 02:15:27;;;;;;;51.58;8.57;;;;;;;;;;5047547;28;20029;-63
2021/04/04 02:17:54;;;;;;;29.77;6.90;;;;;;;;;;5049116;28;20025;-63
2021/04/04 02:20:20;;;;;;;40.88;9.43;;;;;;;;;;5049426;28;20025;-63
2021/04/04 02:22:46;;;;;;;40.45;9.52;;;;;;;;;;5049457;28;20377;-64
2021/04/04 02:25:12;;;;;;;35.85;7.13;;;;;;;;;;5033960;28;20013;-63
2021/04/04 02:27:39;;;;;;;30.92;7.05;;;;;;;;;;5052360;28;20024;-63
2021/04/04 02:30:05;;;;;;;31.48;6.85;;;;;;;;;;5051916;28;20025;-64
2021/04/04 02:32:31;;;;;;;36.55;7.85;;;;;;;;;;5052910;28;20075;-64
2021/04/04 02:34:58;;;;;;;49.00;7.18;;;;;;;;;;5052761;28;20541;-63
2021/04/04 02:37:23;;;;;;;26.67;7.78;;;;;;;;;;5052938;28;20064;-63
2021/04/04 02:39:50;;;;;;;24.00;6.20;;;;;;;;;;5052788;28;20040;-64
2021/04/04 02:42:17;;;;;;;32.47;7.68;;;;;;;;;;5052711;28;20481;-64
2021/04/04 02:44:43;;;;;;;40.67;7.72;;;;;;;;;;5045974;28;20027;-65
2021/04/04 02:47:10;;;;;;;29.83;7.20;;;;;;;;;;5049401;28;20103;-64
2021/04/04 02:49:36;;;;;;;34.40;7.72;;;;;;;;;;5052651;28;20024;-63
2021/04/04 02:52:03;;;;;;;45.03;8.52;;;;;;;;;;5053672;28;20029;-63
2021/04/04 02:54:29;;;;;;;38.17;8.35;;;;;;;;;;5052234;28;20025;-64
2021/04/04 02:56:56;;;;;;;31.30;7.53;;;;;;;;;;5052487;28;20082;-63
2021/04/04 02:59:29;;;;;;;33.53;7.57;;;;;;;;;;5051821;28;20024;-63
2021/04/04 03:01:56;;;;;;;31.83;8.00;;;;;;;;;;5052374;28;20762;-63
2021/04/04 03:04:25;;;;;;;40.67;9.18;;;;;;;;;;5047348;28;20040;-64
2021/04/04 03:06:51;;;;;;;35.83;7.70;;;;;;;;;;5049590;28;20393;-65
2021/04/04 03:09:17;;;;;;;35.35;7.28;;;;;;;;;;5046660;28;20013;-65
2021/04/04 03:11:43;;;;;;;40.55;8.60;;;;;;;;;;5051845;28;20021;-63
2021/04/04 03:14:09;;;;;;;41.30;8.38;;;;;;;;;;5052038;28;20127;-64
2021/04/04 03:16:35;;;;;;;28.05;6.65;;;;;;;;;;5051635;28;20029;-63
2021/04/04 03:19:00;;;;;;;38.38;7.57;;;;;;;;;;5050825;28;20027;-63
2021/04/04 03:21:27;;;;;;;33.33;7.65;;;;;;;;;;5064554;28;20375;-63
2021/04/04 03:23:52;;;;;;;46.22;8.90;;;;;;;;;;5046724;28;20023;-64
2021/04/04 03:26:18;;;;;;;28.77;6.70;;;;;;;;;;5050817;28;20033;-64
2021/04/04 03:28:43;;;;;;;31.88;6.57;;;;;;;;;;5051521;28;20104;-63
2021/04/04 03:31:14;;;;;;;35.35;8.02;;;;;;;;;;5051432;28;20064;-64
2021/04/04 03:33:39;;;;;;;37.75;6.82;;;;;;;;;;5051822;28;20367;-63
2021/04/04 03:36:05;;;;;;;31.13;7.93;;;;;;;;;;5051221;28;20100;-63
2021/04/04 03:38:30;;;;;;;29.95;6.32;;;;;;;;;;5051110;28;20504;-64
2021/04/04 03:40:55;;;;;;;34.90;7.65;;;;;;;;;;5052118;28;20470;-63
2021/04/04 03:43:21;;;;;;;34.45;7.32;;;;;;;;;;5051352;28;20121;-63
2021/04/04 03:45:48;;;;;;;42.00;8.55;;;;;;;;;;5051257;28;20040;-63
2021/04/04 03:48:14;;;;;;;44.78;8.05;;;;;;;;;;5051138;28;20501;-63
2021/04/04 03:50:39;;;;;;;36.63;6.75;;;;;;;;;;5050676;28;20028;-63
2021/04/04 03:53:05;;;;;;;37.13;7.03;;;;;;;;;;5049218;28;20768;-64
2021/04/04 03:55:31;;;;;;;34.95;6.68;;;;;;;;;;5035491;28;20022;-64
2021/04/04 03:57:57;;;;;;;26.45;6.35;;;;;;;;;;5051092;28;20024;-64
2021/04/04 04:00:24;;;;;;;35.13;6.57;;;;;;;;;;5051049;28;20071;-65
2021/04/04 04:02:50;;;;;;;20.02;7.30;;;;;;;;;;5051543;28;20044;-64
2021/04/04 04:05:20;;;;;;;34.97;7.50;;;;;;;;;;5050835;28;20055;-63
2021/04/04 04:07:46;;;;;;;43.75;6.75;;;;;;;;;;5050811;28;20032;-65
2021/04/04 04:10:13;;;;;;;34.40;7.97;;;;;;;;;;5049587;28;20029;-65
2021/04/04 04:12:39;;;;;;;40.05;8.38;;;;;;;;;;5050163;28;20119;-64
2021/04/04 04:15:05;;;;;;;24.10;6.20;;;;;;;;;;5051281;28;20108;-64
2021/04/04 04:17:31;;;;;;;32.75;6.45;;;;;;;;;;5050614;28;20140;-65
2021/04/04 04:19:56;;;;;;;33.05;7.05;;;;;;;;;;5050567;28;20021;-65
2021/04/04 04:22:22;;;;;;;40.65;5.95;;;;;;;;;;5049564;28;20508;-63
2021/04/04 04:24:49;;;;;;;26.85;6.13;;;;;;;;;;5050498;28;20021;-63
2021/04/04 04:27:15;;;;;;;28.83;5.47;;;;;;;;;;5049982;28;20017;-64
2021/04/04 04:29:40;;;;;;;20.42;6.43;;;;;;;;;;5049570;28;20116;-64
2021/04/04 04:32:06;;;;;;;29.40;7.75;;;;;;;;;;5050236;28;20079;-64
2021/04/04 04:34:31;;;;;;;36.80;5.53;;;;;;;;;;5050012;28;20021;-64
2021/04/04 04:36:57;;;;;;;28.08;6.15;;;;;;;;;;5050192;28;20021;-64
2021/04/04 04:39:23;;;;;;;26.23;6.80;;;;;;;;;;5040668;28;20034;-64
2021/04/04 04:41:48;;;;;;;25.95;5.65;;;;;;;;;;5048624;28;20023;-63
2021/04/04 04:44:15;;;;;;;34.00;6.38;;;;;;;;;;5050027;28;20063;-64
2021/04/04 04:46:42;;;;;;;30.25;6.88;;;;;;;;;;5049076;28;20448;-63
2021/04/04 04:49:07;;;;;;;26.88;5.82;;;;;;;;;;5046422;28;20099;-63
2021/04/04 04:51:33;;;;;;;34.25;6.80;;;;;;;;;;5050616;28;20481;-63
2021/04/04 04:53:58;;;;;;;29.15;6.18;;;;;;;;;;5050660;28;20025;-63
2021/04/04 04:56:23;;;;;;;38.55;6.95;;;;;;;;;;5050342;28;20285;-63
2021/04/04 04:58:49;;;;;;;34.72;6.07;;;;;;;;;;5049027;28;20024;-63
2021/04/04 05:01:17;;;;;;;43.90;7.88;;;;;;;;;;5050898;28;20050;-63
2021/04/04 05:03:43;;;;;;;29.95;6.97;;;;;;;;;;5049633;28;20063;-63
2021/04/04 05:06:09;;;;;;;32.25;7.43;;;;;;;;;;5049492;28;20013;-63
2021/04/04 05:08:34;;;;;;;38.78;8.25;;;;;;;;;;5050174;28;20100;-63
2021/04/04 05:11:03;;;;;;;28.17;7.00;;;;;;;;;;5050237;28;20091;-63
2021/04/04 05:13:28;;;;;;;43.67;7.65;;;;;;;;;;5050003;28;20024;-63
2021/04/04 05:15:54;;;;;;;28.83;7.50;;;;;;;;;;5044824;28;20016;-63
2021/04/04 05:18:19;;;;;;;38.95;9.35;;;;;;;;;;5049768;28;20078;-64
2021/04/04 05:20:45;;;;;;;48.90;8.77;;;;;;;;;;5049763;28;20354;-63
2021/04/04 05:23:11;;;;;;;30.35;7.40;;;;;;;;;;5050530;28;20013;-63
2021/04/04 05:25:37;;;;;;;35.80;9.45;;;;;;;;;;5049117;28;20100;-63
2021/04/04 05:28:02;;;;;;;50.65;9.85;;;;;;;;;;5048681;28;20025;-64
2021/04/04 05:30:27;;;;;;;43.08;10.82;;;;;;;;;;5050168;28;20021;-64
2021/04/04 05:32:53;;;;;;;43.63;9.48;;;;;;;;;;5048394;28;20031;-63
2021/04/04 05:35:20;;;;;;;36.72;9.70;;;;;;;;;;5049050;28;20017;-63
2021/04/04 05:37:45;;;;;;;39.28;9.45;;;;;;;;;;5049678;28;20052;-63
2021/04/04 05:40:31;;;;;;;35.35;8.63;;;;;;;;;;5049734;28;20021;-63
2021/04/04 05:43:00;;;;;;;40.10;9.27;;;;;;;;;;5049063;28;20124;-63
2021/04/04 05:45:36;;;;;;;43.60;10.40;;;;;;;;;;5049348;28;20082;-63
2021/04/04 05:48:23;;;;;;;38.63;9.43;;;;;;;;;;5048670;28;20477;-63
2021/04/04 05:51:04;;;;;;;35.00;8.23;;;;;;;;;;5042011;28;20543;-63
2021/04/04 05:53:29;;;;;;;;;;;;;;;;;;5049150;28;20021;-63
2021/04/04 05:55:54;;;;;;;37.85;10.10;;;;;;;;;;5048998;28;19909;-63
2021/04/04 05:58:28;;;;;;;36.57;8.63;;;;;;;;;;5047446;28;20380;-63
2021/04/04 06:00:54;;;;;;;40.72;8.82;;;;;;;;;;5052541;28;20280;-63
2021/04/04 06:03:35;;;;;;;41.78;8.75;;;;;;;;;;5053871;28;20063;-63
2021/04/04 06:06:15;;;;;;;39.50;10.88;;;;;;;;;;5052763;28;20013;-64
2021/04/04 06:08:44;;;;;;;42.22;10.65;;;;;;;;;;5052962;28;20106;-63
2021/04/04 06:11:41;;;;;;;37.28;10.30;;;;;;;;;;5053627;28;20429;-63
2021/04/04 06:14:15;;;;;;;43.03;9.40;;;;;;;;;;5005469;28;20350;-63
2021/04/04 06:16:47;;;;;;;44.83;11.15;;;;;;;;;;5048085;28;20902;-63
2021/04/04 06:19:30;;;;;;;48.50;10.10;;;;;;;;;;5050519;28;20028;-62
2021/04/04 06:21:56;;;;;;;42.70;11.35;;;;;;;;;;5045859;28;20021;-63
2021/04/04 06:24:37;;;;;;;44.33;11.00;;;;;;;;;;5050997;28;20476;-63
2021/04/04 06:27:21;;;;;;;36.22;11.90;;;;;;;;;;5048799;28;20313;-63
2021/04/04 06:30:01;;;;;;;38.22;10.35;;;;;;;;;;5050288;28;20138;-63
2021/04/04 06:32:40;;;;;;;44.40;9.32;;;;;;;;;;5050857;28;20017;-64
2021/04/04 06:35:20;;;;;;;42.17;10.90;;;;;;;;;;5050027;28;20124;-63
2021/04/04 06:38:04;;;;;;;38.20;9.85;;;;;;;;;;5032810;28;20390;-63
2021/04/04 06:40:48;;;;;;;37.60;9.73;;;;;;;;;;5050341;28;20041;-63
2021/04/04 06:43:24;;;;;;;39.78;12.35;;;;;;;;;;5050203;28;20730;-63
2021/04/04 06:46:12;;;;;;;46.10;12.07;;;;;;;;;;5045841;28;20456;-64
2021/04/04 06:48:50;;;;;;;47.58;11.43;;;;;;;;;;5038718;28;20138;-63
2021/04/04 06:51:21;;;;;;;34.78;11.05;;;;;;;;;;5049745;28;20369;-63
2021/04/04 06:54:10;;;;;;;43.58;10.18;;;;;;;;;;5050915;28;20292;-63
2021/04/04 06:56:35;;;;;;;38.35;11.40;;;;;;;;;;5051286;28;20055;-63
2021/04/04 06:59:03;;;;;;;32.10;11.30;;;;;;;;;;5047693;28;20473;-63
2021/04/04 07:01:57;;;;;;;48.50;11.50;;;;;;;;;;5043252;28;20260;-63
2021/04/04 07:04:22;;;;;;;50.22;11.73;;;;;;;;;;5038507;28;20033;-63
2021/04/04 07:07:06;;;;;;;44.70;12.70;;;;;;;;;;5050386;28;20089;-64
2021/04/04 07:09:34;;;;;;;37.22;11.65;;;;;;;;;;5048897;28;20267;-63
2021/04/04 07:12:21;;;;;;;47.92;12.52;;;;;;;;;;5046995;28;20422;-63
2021/04/04 07:15:05;;;;;;;39.03;12.07;;;;;;;;;;5061843;28;20028;-63
2021/04/04 07:17:49;;;;;;;38.83;11.68;;;;;;;;;;5048313;28;20031;-63
2021/04/04 07:20:22;;;;;;;45.67;11.98;;;;;;;;;;5047020;28;20104;-63
2021/04/04 07:23:13;;;;;;;38.13;11.43;;;;;;;;;;5050499;28;20017;-64
2021/04/04 07:26:01;;;;;;;62.80;14.52;;;;;;;;;;5013013;28;20032;-63
2021/04/04 07:28:46;;;;;;;38.15;11.05;;;;;;;;;;5042404;28;20025;-63
2021/04/04 07:31:13;;;;;;;42.58;12.30;;;;;;;;;;5007051;28;20044;-63
2021/04/04 07:33:42;;;;;;;39.80;12.23;;;;;;;;;;5048416;28;20400;-63
2021/04/04 07:36:11;;;;;;;32.25;10.98;;;;;;;;;;5049170;28;20051;-63
2021/04/04 07:38:50;;;;;;;59.38;17.35;;;;;;;;;;5049572;28;20021;-63
2021/04/04 07:41:31;;;;;;;44.13;15.73;;;;;;;;;;5045944;28;20043;-63
2021/04/04 07:44:02;;;;;;;55.33;20.55;;;;;;;;;;5038996;28;20025;-63
2021/04/04 07:46:47;;;;;;;59.22;23.70;;;;;;;;;;5048897;28;20025;-63
2021/04/04 07:49:33;;;;;;;78.03;25.85;;;;;;;;;;5046989;28;20074;-63
2021/04/04 07:52:00;;;;;;;60.30;24.10;;;;;;;;;;5049202;28;20493;-63
2021/04/04 07:54:29;;;;;;;68.82;29.77;;;;;;;;;;5052649;28;20029;-63
2021/04/04 07:57:07;;;;;;;66.57;26.48;;;;;;;;;;5050638;28;20060;-63
2021/04/04 07:59:40;;;;;;;65.55;25.10;;;;;;;;;;5040452;28;20032;-63
2021/04/04 08:02:05;;;;;;;73.78;30.67;;;;;;;;;;5051536;28;20099;-63
2021/04/04 08:04:39;;;;;;;95.38;35.17;;;;;;;;;;5051162;28;20100;-63
2021/04/04 08:07:14;;;;;;;76.03;33.80;;;;;;;;;;5050846;28;20274;-63
2021/04/04 08:09:48;;;;;;;73.85;31.90;;;;;;;;;;5046758;28;20028;-63
2021/04/04 08:12:17;;;;;;;70.20;31.08;;;;;;;;;;5048681;28;20017;-63
2021/04/04 08:14:58;;;;;;;73.95;31.63;;;;;;;;;;5047870;28;20385;-64
2021/04/04 08:17:23;;;;;;;67.18;27.85;;;;;;;;;;5050230;28;20021;-63
2021/04/04 08:20:00;;;;;;;58.80;27.48;;;;;;;;;;5049984;28;20044;-63
2021/04/04 08:22:28;;;;;;;65.32;28.27;;;;;;;;;;5042202;28;20441;-63
2021/04/04 08:24:56;;;;;;;63.10;27.38;;;;;;;;;;5049268;28;20266;-63
2021/04/04 08:27:33;;;;;;;70.57;28.65;;;;;;;;;;5050723;28;20461;-63
2021/04/04 08:30:02;;;;;;;71.38;28.23;;;;;;;;;;5049719;28;20028;-63
2021/04/04 08:32:33;;;;;;;81.13;26.98;;;;;;;;;;5050661;28;20489;-63
2021/04/04 08:34:59;;;;;;;66.03;25.40;;;;;;;;;;5050405;28;20377;-63
2021/04/04 08:37:30;;;;;;;62.95;24.73;;;;;;;;;;5050203;28;20024;-63
2021/04/04 08:39:57;;;;;;;74.68;26.25;;;;;;;;;;5037729;28;20031;-63
2021/04/04 08:42:22;;;;;;;72.70;29.80;;;;;;;;;;5049820;28;20021;-63
2021/04/04 08:44:54;;;;;;;70.45;27.52;;;;;;;;;;5050415;23;20103;-87
2021/04/04 08:47:27;;;;;;;82.85;32.45;;;;;;;;;;5013048;28;20029;-88
2021/04/04 08:49:53;;;;;;;60.20;27.10;;;;;;;;;;5013037;28;20021;-87
2021/04/04 08:52:26;;;;;;;67.20;26.85;;;;;;;;;;5011569;28;20237;-87
2021/04/04 08:54:52;;;;;;;67.07;26.48;;;;;;;;;;5011128;28;20442;-87
2021/04/04 08:57:21;;;;;;;61.80;25.67;;;;;;;;;;5010562;28;20021;-86
2021/04/04 08:59:47;;;;;;;65.63;26.02;;;;;;;;;;5018889;28;20037;-87
2021/04/04 09:02:14;;;;;;;70.28;28.10;;;;;;;;;;5011662;28;20048;-87
2021/04/04 09:04:40;;;;;;;81.70;31.35;;;;;;;;;;5012456;28;20037;-86
2021/04/04 09:07:06;;;;;;;85.30;31.92;;;;;;;;;;5010909;28;20017;-86
2021/04/04 09:09:51;;;;;;;81.78;32.47;;;;;;;;;;5006641;28;20159;-87
2021/04/04 09:12:17;;;;;;;74.30;31.30;;;;;;;;;;5007174;28;20036;-86
2021/04/04 09:14:43;;;;;;;76.28;29.50;;;;;;;;;;5014441;28;20048;-86
2021/04/04 09:17:10;;;;;;;78.60;29.42;;;;;;;;;;5011308;28;20103;-86
2021/04/04 09:19:37;;;;;;;75.88;30.05;;;;;;;;;;5023158;28;20033;-88
2021/04/04 09:22:16;;;;;;;66.63;27.42;;;;;;;;;;5031092;28;20026;-87
2021/04/04 09:24:52;;;;;;;76.32;30.98;;;;;;;;;;5021611;28;20143;-86
2021/04/04 09:27:19;;;;;;;72.78;30.55;;;;;;;;;;5018572;28;20033;-87
2021/04/04 09:29:45;;;;;;;76.80;30.58;;;;;;;;;;5017257;28;20053;-85
2021/04/04 09:32:14;;;;;;;68.10;28.90;;;;;;;;;;5029127;28;20029;-87
2021/04/04 09:34:42;;;;;;;82.65;30.95;;;;;;;;;;5021921;28;20057;-87
2021/04/04 09:37:07;;;;;;;81.00;31.40;;;;;;;;;;4993399;28;20113;-87
2021/04/04 09:39:34;;;;;;;78.70;30.38;;;;;;;;;;5011853;28;20128;-87
2021/04/04 09:42:00;;;;;;;70.28;30.08;;;;;;;;;;5011147;28;20033;-86
2021/04/04 09:44:29;;;;;;;69.30;29.35;;;;;;;;;;5017660;28;20036;-86
2021/04/04 09:46:59;;;;;;;63.22;28.85;;;;;;;;;;5030384;28;20385;-88
2021/04/04 09:49:34;;;;;;;66.43;29.70;;;;;;;;;;5022394;28;20392;-87
2021/04/04 09:51:59;;;;;;;62.40;29.02;;;;;;;;;;5018515;28;20485;-87
2021/04/04 09:54:24;;;;;;;64.70;30.60;;;;;;;;;;5029357;28;20155;-87
2021/04/04 09:56:56;;;;;;;70.07;31.20;;;;;;;;;;5028216;28;20116;-87
2021/04/04 09:59:27;;;;;;;64.88;29.83;;;;;;;;;;5004529;28;20037;-88
2021/04/04 10:01:53;;;;;;;65.07;28.80;;;;;;;;;;5007986;28;20405;-86
2021/04/04 10:04:21;;;;;;;59.53;26.85;;;;;;;;;;5029953;28;20017;-87
2021/04/04 10:06:57;;;;;;;58.83;27.75;;;;;;;;;;5030608;28;20036;-87
2021/04/04 10:09:35;;;;;;;59.67;25.27;;;;;;;;;;5012344;28;20036;-87
2021/04/04 10:12:00;;;;;;;50.78;25.60;;;;;;;;;;5031219;28;20067;-87
2021/04/04 10:14:26;;;;;;;62.50;25.42;;;;;;;;;;5025018;28;20433;-87
2021/04/04 10:17:07;;;;;;;62.65;27.35;;;;;;;;;;5020240;28;20196;-88
2021/04/04 10:19:32;;;;;;;52.15;23.88;;;;;;;;;;5030520;28;20154;-87
2021/04/04 10:22:01;;;;;;;55.95;23.65;;;;;;;;;;5019682;28;20301;-87
2021/04/04 10:24:30;;;;;;;55.00;25.30;;;;;;;;;;5012614;28;20029;-88
2021/04/04 10:27:14;;;;;;;50.90;21.65;;;;;;;;;;5013403;28;20030;-88
2021/04/04 10:29:45;;;;;;;52.58;21.33;;;;;;;;;;5014976;28;20465;-87
2021/04/04 10:32:11;;;;;;;49.03;21.52;;;;;;;;;;5030918;28;20047;-88
2021/04/04 10:34:43;;;;;;;50.72;24.33;;;;;;;;;;5029464;28;20063;-88
2021/04/04 10:37:09;;;;;;;52.40;26.52;;;;;;;;;;5024830;28;20513;-88
2021/04/04 10:39:34;;;;;;;47.60;21.67;;;;;;;;;;5012496;28;20057;-88
2021/04/04 10:42:12;;;;;;;50.00;24.25;;;;;;;;;;5013210;28;20489;-88
2021/04/04 10:44:38;;;;;;;50.00;22.15;;;;;;;;;;5015352;28;20040;-88
2021/04/04 10:47:17;;;;;;;44.33;17.60;;;;;;;;;;4997352;28;20129;-88
2021/04/04 10:49:42;;;;;;;48.65;19.90;;;;;;;;;;5011579;28;20509;-88
2021/04/04 10:52:08;;;;;;;52.97;20.02;;;;;;;;;;5032224;28;20033;-88
2021/04/04 10:54:39;;;;;;;43.30;18.85;;;;;;;;;;5024875;28;20420;-88
2021/04/04 10:57:05;;;;;;;48.05;21.08;;;;;;;;;;5033053;28;20097;-87
2021/04/04 10:59:31;;;;;;;50.00;18.48;;;;;;;;;;5031023;28;20107;-87
2021/04/04 11:01:56;;;;;;;44.38;19.40;;;;;;;;;;5011094;28;20491;-87
2021/04/04 11:04:23;;;;;;;46.15;19.55;;;;;;;;;;4997216;28;20025;-88
2021/04/04 11:06:48;;;;;;;49.90;20.20;;;;;;;;;;5034112;28;20071;-88
2021/04/04 11:09:13;;;;;;;46.60;21.05;;;;;;;;;;5032972;28;20021;-88
2021/04/04 11:11:39;;;;;;;49.13;19.85;;;;;;;;;;5028949;28;20029;-88
2021/04/04 11:14:05;;;;;;;47.28;19.02;;;;;;;;;;5032064;28;20025;-88
2021/04/04 11:16:31;;;;;;;42.92;20.83;;;;;;;;;;5018659;28;20036;-88
2021/04/04 11:18:57;;;;;;;49.50;20.00;;;;;;;;;;5023160;28;20025;-88
2021/04/04 11:21:27;;;;;;;47.72;20.65;;;;;;;;;;5038964;28;20147;-88
2021/04/04 11:23:53;;;;;;;43.78;20.08;;;;;;;;;;5012237;28;20023;-87
2021/04/04 11:26:25;;;;;;;49.55;20.60;;;;;;;;;;5044714;28;20099;-87
2021/04/04 11:29:09;;;;;;;50.72;21.50;;;;;;;;;;5038564;28;20013;-88
2021/04/04 11:31:35;;;;;;;56.05;21.35;;;;;;;;;;5039699;28;20022;-88
2021/04/04 11:34:19;;;;;;;52.38;23.67;;;;;;;;;;5013157;28;20040;-87
2021/04/04 11:36:45;;;;;;;50.65;20.80;;;;;;;;;;5035828;28;20382;-89
2021/04/04 11:39:10;;;;;;;46.08;20.05;;;;;;;;;;5033332;28;20101;-88
2021/04/04 11:41:45;;;;;;;48.33;20.15;;;;;;;;;;5004373;28;20033;-87
2021/04/04 11:44:17;;;;;;;43.92;16.30;;;;;;;;;;5019684;28;20026;-87
2021/04/04 11:46:44;;;;;;;27.95;12.80;;;;;;;;;;5031713;28;20025;-88
2021/04/04 11:49:28;;;;;;;32.97;13.90;;;;;;;;;;5021660;28;20017;-88
2021/04/04 11:51:53;;;;;;;33.63;14.15;;;;;;;;;;5011843;28;20025;-88
2021/04/04 11:54:41;;;;;;;29.58;10.43;;;;;;;;;;5009191;28;20033;-86
2021/04/04 11:57:07;;;;;;;27.73;9.80;;;;;;;;;;4998867;28;20116;-88
2021/04/04 11:59:32;;;;;;;21.83;9.68;;;;;;;;;;5014180;28;20116;-88
2021/04/04 12:01:57;;;;;;;25.92;9.70;;;;;;;;;;5014318;28;20029;-88
2021/04/04 12:04:35;;;;;;;23.42;8.55;;;;;;;;;;5014665;28;20068;-88
2021/04/04 12:07:07;;;;;;;20.15;8.95;;;;;;;;;;5032327;28;20473;-87
2021/04/04 12:09:33;;;;;;;24.88;9.00;;;;;;;;;;5031687;28;20018;-87
2021/04/04 12:11:59;;;;;;;19.52;8.57;;;;;;;;;;5032735;28;20025;-88
2021/04/04 12:14:24;;;;;;;26.50;9.85;;;;;;;;;;5015921;28;20141;-89
2021/04/04 12:16:49;;;;;;;23.13;8.98;;;;;;;;;;5005266;28;20029;-87
2021/04/04 12:19:24;;;;;;;29.55;11.93;;;;;;;;;;5032589;28;20405;-87
2021/04/04 12:21:50;;;;;;;26.40;10.60;;;;;;;;;;5013719;28;20493;-88
2021/04/04 12:24:16;;;;;;;33.75;11.82;;;;;;;;;;5013423;28;20029;-88
2021/04/04 12:26:41;;;;;;;28.52;12.48;;;;;;;;;;5013479;28;20026;-87
2021/04/04 12:29:06;;;;;;;30.95;12.30;;;;;;;;;;5012491;28;20108;-88
2021/04/04 12:31:37;;;;;;;30.60;13.98;;;;;;;;;;5012782;28;20017;-89
2021/04/04 12:34:06;;;;;;;26.55;12.45;;;;;;;;;;5012133;28;20022;-89
2021/04/04 12:36:32;;;;;;;30.20;12.95;;;;;;;;;;5015001;28;20068;-88
2021/04/04 12:38:59;;;;;;;29.27;13.43;;;;;;;;;;5021587;28;20030;-89
2021/04/04 12:41:25;;;;;;;26.33;13.85;;;;;;;;;;4998021;28;20017;-89
2021/04/04 12:43:50;;;;;;;28.60;14.68;;;;;;;;;;5015788;28;20052;-88
2021/04/04 12:46:16;;;;;;;35.70;14.90;;;;;;;;;;5002840;28;20425;-89
2021/04/04 12:48:41;;;;;;;34.03;14.50;;;;;;;;;;4999959;28;20080;-89
2021/04/04 12:51:06;;;;;;;32.20;14.82;;;;;;;;;;5014732;28;20032;-89
2021/04/04 12:53:36;;;;;;;40.28;15.90;;;;;;;;;;4995964;28;20053;-89
2021/04/04 12:56:02;;;;;;;39.42;16.95;;;;;;;;;;5030798;28;20085;-89
2021/04/04 12:58:28;;;;;;;39.38;16.75;;;;;;;;;;5013307;28;20053;-89
2021/04/04 13:00:54;;;;;;;38.03;15.65;;;;;;;;;;5013002;28;20024;-88
2021/04/04 13:03:19;;;;;;;43.22;16.35;;;;;;;;;;5012246;28;20400;-88
2021/04/04 13:05:49;;;;;;;32.88;14.07;;;;;;;;;;5025464;28;20027;-88
2021/04/04 13:08:27;;;;;;;33.65;13.75;;;;;;;;;;5012905;28;20108;-89
2021/04/04 13:11:00;;;;;;;31.33;13.57;;;;;;;;;;5013224;28;20025;-89
2021/04/04 13:13:27;;;;;;;24.70;13.27;;;;;;;;;;5031539;28;20025;-90
2021/04/04 13:15:55;;;;;;;32.22;13.88;;;;;;;;;;5025851;28;20189;-89
2021/04/04 13:18:26;;;;;;;40.13;17.67;;;;;;;;;;5000284;28;20044;-88
2021/04/04 13:20:53;;;;;;;38.90;16.50;;;;;;;;;;5007994;28;20374;-88
2021/04/04 13:23:18;;;;;;;38.28;16.45;;;;;;;;;;5012972;28;20052;-90
2021/04/04 13:25:44;;;;;;;33.80;15.27;;;;;;;;;;5014068;28;20022;-88
2021/04/04 13:28:23;;;;;;;27.83;11.88;;;;;;;;;;5012924;28;20013;-88
2021/04/04 13:31:08;;;;;;;24.75;10.90;;;;;;;;;;5030953;28;20029;-88
2021/04/04 13:33:34;;;;;;;25.00;10.52;;;;;;;;;;5012200;28;20132;-88
2021/04/04 13:36:11;;;;;;;23.25;12.18;;;;;;;;;;5030759;28;20057;-88
2021/04/04 13:38:36;;;;;;;21.88;11.00;;;;;;;;;;5013645;28;20209;-89
2021/04/04 13:41:02;;;;;;;22.55;11.00;;;;;;;;;;5034087;28;20021;-88
2021/04/04 13:43:28;;;;;;;28.80;12.15;;;;;;;;;;5034014;28;20029;-87
2021/04/04 13:45:53;;;;;;;27.77;12.80;;;;;;;;;;5025371;28;20021;-87
2021/04/04 13:48:29;;;;;;;39.42;12.75;;;;;;;;;;5008584;28;20771;-88
2021/04/04 13:50:55;;;;;;;25.67;11.27;;;;;;;;;;5011331;28;20412;-88
2021/04/04 13:53:25;;;;;;;26.42;11.88;;;;;;;;;;5027432;28;20043;-89
2021/04/04 13:55:51;;;;;;;25.92;10.48;;;;;;;;;;5051973;22;20409;-63
2021/04/04 13:58:29;;;;;;;26.85;10.23;;;;;;;;;;5046898;28;20025;-64
2021/04/04 14:00:55;;;;;;;25.75;9.75;;;;;;;;;;5032998;28;20603;-64
2021/04/04 14:03:24;;;;;;;27.77;10.15;;;;;;;;;;5049762;28;20017;-63
2021/04/04 14:05:49;;;;;;;29.13;11.32;;;;;;;;;;5049158;28;20029;-64
2021/04/04 14:08:16;;;;;;;24.88;10.48;;;;;;;;;;5049324;28;20023;-64
2021/04/04 14:10:41;;;;;;;25.15;9.55;;;;;;;;;;5042828;22;20042;-65
2021/04/04 14:13:06;;;;;;;23.27;8.73;;;;;;;;;;5007191;28;20033;-65
2021/04/04 14:15:31;;;;;;;18.23;7.70;;;;;;;;;;5001004;28;20336;-65
2021/04/04 14:17:58;;;;;;;25.80;8.55;;;;;;;;;;5007850;28;20032;-66
2021/04/04 14:20:23;;;;;;;21.95;7.75;;;;;;;;;;5011622;28;20030;-65
2021/04/04 14:22:51;;;;;;;17.15;6.20;;;;;;;;;;5013296;28;20029;-64
2021/04/04 14:25:16;;;;;;;17.65;7.00;;;;;;;;;;5013283;28;20029;-65
2021/04/04 14:27:42;;;;;;;16.25;6.60;;;;;;;;;;5013148;28;20026;-67
2021/04/04 14:30:07;;;;;;;16.80;6.05;;;;;;;;;;5013397;28;20026;-67
2021/04/04 14:32:32;;;;;;;21.80;7.78;;;;;;;;;;5012953;28;20026;-65
2021/04/04 14:34:58;;;;;;;24.27;8.30;;;;;;;;;;5002206;28;20058;-65